Arnett, TX

9:44 AM CDT on August 29, 2015 (GMT -0500)
Rhudys on Cedar Ridge | | Change Station
CLOSE
Current Station
Personal Weather Station
Location: Gatesville, TX
Elevation: 1043 ft
Nearby Weather Stations

Elev 1043 ft 31.45 °N, 97.70 °W | Updated 4 seconds ago

Mostly Cloudy
Mostly Cloudy
78.9 °F
Feels Like 81 °F
N
2.3
Wind Variable Wind from SW
Gusts 2.3 mph

Today
High -- | Low -- °F
--% Chance of Precip.
Yesterday
High -- | Low -- °F
Precip. -- in
7:04 AM 7:58 PM
Full, 100% visible
Pressure 30.08 in
Visibility 10.0 miles
Clouds Clear
Heat Index 81 °F
Dew Point 66 °F
Humidity 65%
Rainfall 0.00 in
Snow Depth Not available.
UV 3 out of 12
Pollen 7.90 out of 12
Air Quality Not available.
Flu Activity Not available.
METAR KGOP 291435Z AUTO 24007KT 10SM CLR 27/18 A3008 RMK AO2
Pressure 30.08 in
Visibility 10.0 miles
Clouds Clear
Heat Index 81 °F
Dew Point 66 °F
Humidity 65%
Rainfall 0.00 in
Snow Depth Not available.
UV 3 out of 12
Pollen 7.90 out of 12
Air Quality Not available.
Flu Activity Not available.
METAR KGOP 291435Z AUTO 24007KT 10SM CLR 27/18 A3008 RMK AO2
Nowcast | as of 7:14 am CDT on August 29, 2015

Isolated showers will move south at 10 mph across North Texas through mid morning. Rainfall amounts will be light and range from a trace to a few hundredths of an inch. A few thunderstorms may also develop later today.

×

10-Day Weather Forecast

×

Almanac

Astronomy

Aug. 29, 2015 Rise Set
Actual Time
Civil Twilight
Nautical Twilight
Astronomical Twilight
Moon
Length of Visible Light
Length of Day
Tomorrow will be .
, % of the Moon is Illuminated

Today's Extremes

State Highs State Lows

Community

WunderPhotos

Upload Photos

1,850,707 photos uploaded!

WunderBlogs® & News

Nearby

Air Quality

  Air Quality AQ Index Pollutant
Not available.

Snow Depth

Station Depth Elevation

Earthquake Activity

City Distance Mag. Time & Date
Minimum magnitude displayed is 2.5.

Coastal Water Temperatures

Place Temperature

Stations

Nearby Weather Stations

Station Location Temp. Windchill Dew Point Humidity Wind Precip. Elev Updated Type